sensor_id;sensor_type;location;lat;lon;timestamp;P1;durP1;ratioP1;P2;durP2;ratioP2
7295;SDS011;40758;54.038;11.684;2024-01-11T00:01:35;16.27;;;8.80;;
7295;SDS011;40758;54.038;11.684;2024-01-11T00:04:01;13.70;;;8.45;;
7295;SDS011;40758;54.038;11.684;2024-01-11T00:06:28;12.55;;;5.95;;
7295;SDS011;40758;54.038;11.684;2024-01-11T00:08:55;13.65;;;7.82;;
7295;SDS011;40758;54.038;11.684;2024-01-11T00:11:21;12.98;;;10.30;;
7295;SDS011;40758;54.038;11.684;2024-01-11T00:13:48;11.57;;;5.20;;
7295;SDS011;40758;54.038;11.684;2024-01-11T00:16:15;11.80;;;6.82;;
7295;SDS011;40758;54.038;11.684;2024-01-11T00:18:42;14.23;;;9.20;;
7295;SDS011;40758;54.038;11.684;2024-01-11T00:21:09;9.95;;;7.78;;
7295;SDS011;40758;54.038;11.684;2024-01-11T00:23:36;8.75;;;6.20;;
7295;SDS011;40758;54.038;11.684;2024-01-11T00:26:03;13.23;;;7.22;;
7295;SDS011;40758;54.038;11.684;2024-01-11T00:28:30;9.38;;;4.53;;
7295;SDS011;40758;54.038;11.684;2024-01-11T00:30:56;10.23;;;7.20;;
7295;SDS011;40758;54.038;11.684;2024-01-11T00:33:23;12.88;;;7.75;;
7295;SDS011;40758;54.038;11.684;2024-01-11T00:35:50;11.73;;;6.80;;
7295;SDS011;40758;54.038;11.684;2024-01-11T00:38:17;13.18;;;4.57;;
7295;SDS011;40758;54.038;11.684;2024-01-11T00:40:44;12.65;;;7.60;;
7295;SDS011;40758;54.038;11.684;2024-01-11T00:43:10;9.40;;;7.32;;
7295;SDS011;40758;54.038;11.684;2024-01-11T00:45:37;12.55;;;5.43;;
7295;SDS011;40758;54.038;11.684;2024-01-11T00:48:04;12.40;;;7.70;;
7295;SDS011;40758;54.038;11.684;2024-01-11T00:50:32;10.93;;;7.28;;
7295;SDS011;40758;54.038;11.684;2024-01-11T00:52:58;9.48;;;4.25;;
7295;SDS011;40758;54.038;11.684;2024-01-11T00:55:25;9.95;;;3.50;;
7295;SDS011;40758;54.038;11.684;2024-01-11T00:57:52;9.43;;;3.80;;
7295;SDS011;40758;54.038;11.684;2024-01-11T01:00:19;9.50;;;5.55;;
7295;SDS011;40758;54.038;11.684;2024-01-11T01:02:45;12.38;;;6.78;;
7295;SDS011;40758;54.038;11.684;2024-01-11T01:05:13;10.82;;;5.72;;
7295;SDS011;40758;54.038;11.684;2024-01-11T01:07:40;10.48;;;7.00;;
7295;SDS011;40758;54.038;11.684;2024-01-11T01:10:07;13.10;;;7.85;;
7295;SDS011;40758;54.038;11.684;2024-01-11T01:12:34;10.43;;;4.18;;
7295;SDS011;40758;54.038;11.684;2024-01-11T01:15:01;10.30;;;6.50;;
7295;SDS011;40758;54.038;11.684;2024-01-11T01:17:27;13.30;;;7.22;;
7295;SDS011;40758;54.038;11.684;2024-01-11T01:19:54;12.55;;;6.85;;
7295;SDS011;40758;54.038;11.684;2024-01-11T01:22:21;8.43;;;3.90;;
7295;SDS011;40758;54.038;11.684;2024-01-11T01:24:48;10.57;;;8.25;;
7295;SDS011;40758;54.038;11.684;2024-01-11T01:27:16;13.73;;;7.63;;
7295;SDS011;40758;54.038;11.684;2024-01-11T01:29:43;9.55;;;6.90;;
7295;SDS011;40758;54.038;11.684;2024-01-11T01:32:09;10.45;;;7.00;;
7295;SDS011;40758;54.038;11.684;2024-01-11T01:34:36;13.00;;;8.35;;
7295;SDS011;40758;54.038;11.684;2024-01-11T01:37:03;12.73;;;4.90;;
7295;SDS011;40758;54.038;11.684;2024-01-11T01:39:30;12.93;;;5.35;;
7295;SDS011;40758;54.038;11.684;2024-01-11T01:41:57;10.77;;;6.88;;
7295;SDS011;40758;54.038;11.684;2024-01-11T01:44:23;15.13;;;6.13;;
7295;SDS011;40758;54.038;11.684;2024-01-11T01:46:51;13.77;;;4.60;;
7295;SDS011;40758;54.038;11.684;2024-01-11T01:49:18;13.35;;;7.53;;
7295;SDS011;40758;54.038;11.684;2024-01-11T01:51:49;11.13;;;8.02;;
7295;SDS011;40758;54.038;11.684;2024-01-11T01:54:17;11.85;;;5.05;;
7295;SDS011;40758;54.038;11.684;2024-01-11T01:56:45;12.93;;;6.75;;
7295;SDS011;40758;54.038;11.684;2024-01-11T01:59:12;14.40;;;4.88;;
7295;SDS011;40758;54.038;11.684;2024-01-11T02:01:40;12.38;;;5.20;;
7295;SDS011;40758;54.038;11.684;2024-01-11T02:04:07;16.35;;;10.27;;
7295;SDS011;40758;54.038;11.684;2024-01-11T02:06:34;13.55;;;8.95;;
7295;SDS011;40758;54.038;11.684;2024-01-11T02:09:01;10.82;;;6.28;;
7295;SDS011;40758;54.038;11.684;2024-01-11T02:11:31;15.57;;;8.45;;
7295;SDS011;40758;54.038;11.684;2024-01-11T02:13:59;17.08;;;8.20;;
7295;SDS011;40758;54.038;11.684;2024-01-11T02:16:26;13.20;;;4.10;;
7295;SDS011;40758;54.038;11.684;2024-01-11T02:18:53;12.30;;;5.45;;
7295;SDS011;40758;54.038;11.684;2024-01-11T02:21:20;11.82;;;5.82;;
7295;SDS011;40758;54.038;11.684;2024-01-11T02:24:07;16.80;;;10.20;;
7295;SDS011;40758;54.038;11.684;2024-01-11T02:26:34;15.20;;;6.28;;
7295;SDS011;40758;54.038;11.684;2024-01-11T02:29:04;15.70;;;9.23;;
7295;SDS011;40758;54.038;11.684;2024-01-11T02:31:31;18.65;;;10.40;;
7295;SDS011;40758;54.038;11.684;2024-01-11T02:33:58;14.73;;;9.38;;
7295;SDS011;40758;54.038;11.684;2024-01-11T02:39:38;14.27;;;7.55;;
7295;SDS011;40758;54.038;11.684;2024-01-11T02:42:05;14.52;;;8.25;;
7295;SDS011;40758;54.038;11.684;2024-01-11T02:44:32;15.57;;;8.25;;
7295;SDS011;40758;54.038;11.684;2024-01-11T02:46:59;12.07;;;6.85;;
7295;SDS011;40758;54.038;11.684;2024-01-11T02:49:25;15.57;;;7.40;;
7295;SDS011;40758;54.038;11.684;2024-01-11T02:51:52;13.02;;;4.95;;
7295;SDS011;40758;54.038;11.684;2024-01-11T02:54:19;15.10;;;10.43;;
7295;SDS011;40758;54.038;11.684;2024-01-11T02:56:46;15.75;;;9.25;;
7295;SDS011;40758;54.038;11.684;2024-01-11T02:59:13;18.90;;;10.45;;
7295;SDS011;40758;54.038;11.684;2024-01-11T03:01:39;15.70;;;9.55;;
7295;SDS011;40758;54.038;11.684;2024-01-11T03:04:06;16.67;;;9.10;;
7295;SDS011;40758;54.038;11.684;2024-01-11T03:06:33;14.80;;;8.90;;
7295;SDS011;40758;54.038;11.684;2024-01-11T03:09:00;15.80;;;8.35;;
7295;SDS011;40758;54.038;11.684;2024-01-11T03:11:26;14.77;;;9.80;;
7295;SDS011;40758;54.038;11.684;2024-01-11T03:13:56;14.73;;;9.18;;
7295;SDS011;40758;54.038;11.684;2024-01-11T03:16:22;14.50;;;7.57;;
7295;SDS011;40758;54.038;11.684;2024-01-11T03:18:49;15.02;;;9.45;;
7295;SDS011;40758;54.038;11.684;2024-01-11T03:21:16;15.43;;;8.68;;
7295;SDS011;40758;54.038;11.684;2024-01-11T03:23:43;13.88;;;5.38;;
7295;SDS011;40758;54.038;11.684;2024-01-11T03:26:16;15.43;;;9.10;;
7295;SDS011;40758;54.038;11.684;2024-01-11T03:28:43;10.75;;;4.85;;
7295;SDS011;40758;54.038;11.684;2024-01-11T03:31:10;15.60;;;9.18;;
7295;SDS011;40758;54.038;11.684;2024-01-11T03:33:37;15.38;;;5.63;;
7295;SDS011;40758;54.038;11.684;2024-01-11T03:36:10;15.07;;;8.82;;
7295;SDS011;40758;54.038;11.684;2024-01-11T03:38:38;15.93;;;8.65;;
7295;SDS011;40758;54.038;11.684;2024-01-11T03:41:08;17.63;;;9.40;;
7295;SDS011;40758;54.038;11.684;2024-01-11T03:43:38;16.90;;;8.98;;
7295;SDS011;40758;54.038;11.684;2024-01-11T03:46:05;18.58;;;12.35;;
7295;SDS011;40758;54.038;11.684;2024-01-11T03:48:32;12.57;;;9.95;;
7295;SDS011;40758;54.038;11.684;2024-01-11T03:50:59;16.00;;;8.48;;
7295;SDS011;40758;54.038;11.684;2024-01-11T03:53:26;13.27;;;5.40;;
7295;SDS011;40758;54.038;11.684;2024-01-11T03:55:53;16.65;;;10.68;;
7295;SDS011;40758;54.038;11.684;2024-01-11T03:58:20;15.68;;;6.10;;
7295;SDS011;40758;54.038;11.684;2024-01-11T04:00:46;15.10;;;6.15;;
7295;SDS011;40758;54.038;11.684;2024-01-11T04:03:13;19.15;;;11.30;;
7295;SDS011;40758;54.038;11.684;2024-01-11T04:05:40;13.07;;;7.00;;
7295;SDS011;40758;54.038;11.684;2024-01-11T04:08:07;19.85;;;7.28;;
7295;SDS011;40758;54.038;11.684;2024-01-11T04:10:34;13.98;;;6.97;;
7295;SDS011;40758;54.038;11.684;2024-01-11T04:13:01;17.13;;;8.85;;
7295;SDS011;40758;54.038;11.684;2024-01-11T04:15:28;19.98;;;10.27;;
7295;SDS011;40758;54.038;11.684;2024-01-11T04:17:55;23.63;;;9.93;;
7295;SDS011;40758;54.038;11.684;2024-01-11T04:20:21;16.30;;;8.05;;
7295;SDS011;40758;54.038;11.684;2024-01-11T04:22:50;19.65;;;7.85;;
7295;SDS011;40758;54.038;11.684;2024-01-11T04:25:17;19.30;;;6.38;;
7295;SDS011;40758;54.038;11.684;2024-01-11T04:27:44;12.68;;;4.60;;
7295;SDS011;40758;54.038;11.684;2024-01-11T04:30:11;19.83;;;11.38;;
7295;SDS011;40758;54.038;11.684;2024-01-11T04:32:38;19.83;;;6.88;;
7295;SDS011;40758;54.038;11.684;2024-01-11T04:35:05;26.42;;;11.85;;
7295;SDS011;40758;54.038;11.684;2024-01-11T04:37:32;23.63;;;10.90;;
7295;SDS011;40758;54.038;11.684;2024-01-11T04:39:58;22.85;;;8.05;;
7295;SDS011;40758;54.038;11.684;2024-01-11T04:42:27;19.50;;;9.88;;
7295;SDS011;40758;54.038;11.684;2024-01-11T04:44:54;22.45;;;9.32;;
7295;SDS011;40758;54.038;11.684;2024-01-11T04:47:24;21.95;;;8.52;;
7295;SDS011;40758;54.038;11.684;2024-01-11T04:49:50;19.95;;;10.25;;
7295;SDS011;40758;54.038;11.684;2024-01-11T04:52:17;13.80;;;6.18;;
7295;SDS011;40758;54.038;11.684;2024-01-11T04:54:44;22.35;;;8.07;;
7295;SDS011;40758;54.038;11.684;2024-01-11T04:57:10;18.80;;;8.07;;
7295;SDS011;40758;54.038;11.684;2024-01-11T04:59:37;20.25;;;8.93;;
7295;SDS011;40758;54.038;11.684;2024-01-11T05:02:04;15.25;;;8.43;;
7295;SDS011;40758;54.038;11.684;2024-01-11T05:04:31;13.77;;;7.32;;
7295;SDS011;40758;54.038;11.684;2024-01-11T05:06:58;22.05;;;12.13;;
7295;SDS011;40758;54.038;11.684;2024-01-11T05:09:25;26.42;;;10.55;;
7295;SDS011;40758;54.038;11.684;2024-01-11T05:11:51;22.40;;;9.25;;
7295;SDS011;40758;54.038;11.684;2024-01-11T05:14:18;17.38;;;8.95;;
7295;SDS011;40758;54.038;11.684;2024-01-11T05:16:45;18.00;;;7.03;;
7295;SDS011;40758;54.038;11.684;2024-01-11T05:19:12;19.73;;;10.35;;
7295;SDS011;40758;54.038;11.684;2024-01-11T05:21:38;14.88;;;5.97;;
7295;SDS011;40758;54.038;11.684;2024-01-11T05:24:05;18.25;;;6.38;;
7295;SDS011;40758;54.038;11.684;2024-01-11T05:26:34;17.83;;;8.82;;
7295;SDS011;40758;54.038;11.684;2024-01-11T05:29:01;19.33;;;10.32;;
7295;SDS011;40758;54.038;11.684;2024-01-11T05:31:31;12.43;;;6.60;;
7295;SDS011;40758;54.038;11.684;2024-01-11T05:33:57;13.85;;;5.70;;
7295;SDS011;40758;54.038;11.684;2024-01-11T05:36:24;18.85;;;7.70;;
7295;SDS011;40758;54.038;11.684;2024-01-11T05:38:51;19.08;;;8.02;;
7295;SDS011;40758;54.038;11.684;2024-01-11T05:41:18;16.67;;;9.18;;
7295;SDS011;40758;54.038;11.684;2024-01-11T05:43:45;17.67;;;7.20;;
7295;SDS011;40758;54.038;11.684;2024-01-11T05:46:12;13.82;;;6.90;;
7295;SDS011;40758;54.038;11.684;2024-01-11T05:48:39;23.10;;;10.15;;
7295;SDS011;40758;54.038;11.684;2024-01-11T05:51:06;23.35;;;9.27;;
7295;SDS011;40758;54.038;11.684;2024-01-11T05:53:34;18.52;;;5.68;;
7295;SDS011;40758;54.038;11.684;2024-01-11T05:56:06;18.13;;;8.55;;
7295;SDS011;40758;54.038;11.684;2024-01-11T05:58:34;12.30;;;6.35;;
7295;SDS011;40758;54.038;11.684;2024-01-11T06:01:03;21.00;;;9.20;;
7295;SDS011;40758;54.038;11.684;2024-01-11T06:03:30;14.77;;;6.43;;
7295;SDS011;40758;54.038;11.684;2024-01-11T06:06:00;15.02;;;4.50;;
7295;SDS011;40758;54.038;11.684;2024-01-11T06:08:29;19.50;;;5.93;;
7295;SDS011;40758;54.038;11.684;2024-01-11T06:10:57;13.75;;;9.73;;
7295;SDS011;40758;54.038;11.684;2024-01-11T06:13:24;13.60;;;11.07;;
7295;SDS011;40758;54.038;11.684;2024-01-11T06:15:52;13.23;;;4.38;;
7295;SDS011;40758;54.038;11.684;2024-01-11T06:18:19;14.25;;;3.92;;
7295;SDS011;40758;54.038;11.684;2024-01-11T06:20:46;17.40;;;9.65;;
7295;SDS011;40758;54.038;11.684;2024-01-11T06:23:12;19.88;;;5.53;;
7295;SDS011;40758;54.038;11.684;2024-01-11T06:25:39;18.05;;;8.77;;
7295;SDS011;40758;54.038;11.684;2024-01-11T06:28:06;11.45;;;8.90;;
7295;SDS011;40758;54.038;11.684;2024-01-11T06:30:34;14.50;;;7.25;;
7295;SDS011;40758;54.038;11.684;2024-01-11T06:33:01;15.55;;;4.40;;
7295;SDS011;40758;54.038;11.684;2024-01-11T06:35:28;11.88;;;4.32;;
7295;SDS011;40758;54.038;11.684;2024-01-11T06:37:55;19.98;;;8.43;;
7295;SDS011;40758;54.038;11.684;2024-01-11T06:40:22;13.80;;;10.02;;
7295;SDS011;40758;54.038;11.684;2024-01-11T06:42:48;15.30;;;6.60;;
7295;SDS011;40758;54.038;11.684;2024-01-11T06:45:15;11.77;;;6.45;;
7295;SDS011;40758;54.038;11.684;2024-01-11T06:47:42;17.00;;;6.20;;
7295;SDS011;40758;54.038;11.684;2024-01-11T06:50:14;11.23;;;5.70;;
7295;SDS011;40758;54.038;11.684;2024-01-11T06:52:41;13.93;;;5.93;;
7295;SDS011;40758;54.038;11.684;2024-01-11T06:55:08;11.88;;;5.85;;
7295;SDS011;40758;54.038;11.684;2024-01-11T06:57:36;10.60;;;4.45;;
7295;SDS011;40758;54.038;11.684;2024-01-11T07:00:03;14.75;;;3.50;;
7295;SDS011;40758;54.038;11.684;2024-01-11T07:02:30;11.52;;;6.05;;
7295;SDS011;40758;54.038;11.684;2024-01-11T07:04:57;7.97;;;5.78;;
7295;SDS011;40758;54.038;11.684;2024-01-11T07:07:24;11.50;;;4.65;;
7295;SDS011;40758;54.038;11.684;2024-01-11T07:09:52;10.98;;;3.38;;
7295;SDS011;40758;54.038;11.684;2024-01-11T07:12:21;11.75;;;6.00;;
7295;SDS011;40758;54.038;11.684;2024-01-11T07:14:48;13.48;;;6.70;;
7295;SDS011;40758;54.038;11.684;2024-01-11T07:17:15;6.10;;;2.92;;
7295;SDS011;40758;54.038;11.684;2024-01-11T07:19:42;8.65;;;2.65;;
7295;SDS011;40758;54.038;11.684;2024-01-11T07:22:09;11.57;;;5.78;;
7295;SDS011;40758;54.038;11.684;2024-01-11T07:24:36;11.68;;;2.80;;
7295;SDS011;40758;54.038;11.684;2024-01-11T07:27:04;8.30;;;4.45;;
7295;SDS011;40758;54.038;11.684;2024-01-11T07:29:32;11.77;;;3.33;;
7295;SDS011;40758;54.038;11.684;2024-01-11T07:32:00;9.02;;;5.47;;
7295;SDS011;40758;54.038;11.684;2024-01-11T07:34:27;8.57;;;2.95;;
7295;SDS011;40758;54.038;11.684;2024-01-11T07:36:54;10.35;;;7.28;;
7295;SDS011;40758;54.038;11.684;2024-01-11T07:39:21;10.48;;;3.13;;
7295;SDS011;40758;54.038;11.684;2024-01-11T07:41:49;7.18;;;2.03;;
7295;SDS011;40758;54.038;11.684;2024-01-11T07:44:15;7.88;;;6.60;;
7295;SDS011;40758;54.038;11.684;2024-01-11T07:46:43;8.50;;;5.40;;
7295;SDS011;40758;54.038;11.684;2024-01-11T07:49:22;8.35;;;4.15;;
7295;SDS011;40758;54.038;11.684;2024-01-11T07:51:49;7.00;;;5.40;;
7295;SDS011;40758;54.038;11.684;2024-01-11T07:54:16;10.02;;;3.03;;
7295;SDS011;40758;54.038;11.684;2024-01-11T07:56:42;9.05;;;4.40;;
7295;SDS011;40758;54.038;11.684;2024-01-11T07:59:10;6.43;;;3.65;;
7295;SDS011;40758;54.038;11.684;2024-01-11T08:01:41;10.73;;;2.42;;
7295;SDS011;40758;54.038;11.684;2024-01-11T08:04:08;10.90;;;4.65;;
7295;SDS011;40758;54.038;11.684;2024-01-11T08:06:35;6.43;;;2.80;;
7295;SDS011;40758;54.038;11.684;2024-01-11T08:09:02;5.50;;;1.52;;
7295;SDS011;40758;54.038;11.684;2024-01-11T08:11:31;11.57;;;6.18;;
7295;SDS011;40758;54.038;11.684;2024-01-11T08:14:02;6.18;;;1.77;;
7295;SDS011;40758;54.038;11.684;2024-01-11T08:16:32;5.28;;;1.55;;
7295;SDS011;40758;54.038;11.684;2024-01-11T08:18:59;6.75;;;1.40;;
7295;SDS011;40758;54.038;11.684;2024-01-11T08:21:27;6.60;;;3.00;;
7295;SDS011;40758;54.038;11.684;2024-01-11T08:23:55;10.85;;;5.88;;
7295;SDS011;40758;54.038;11.684;2024-01-11T08:26:26;13.02;;;5.18;;
7295;SDS011;40758;54.038;11.684;2024-01-11T08:28:53;7.50;;;2.25;;
7295;SDS011;40758;54.038;11.684;2024-01-11T08:31:20;8.70;;;3.72;;
7295;SDS011;40758;54.038;11.684;2024-01-11T08:33:47;7.50;;;2.70;;
7295;SDS011;40758;54.038;11.684;2024-01-11T08:36:15;10.30;;;4.50;;
7295;SDS011;40758;54.038;11.684;2024-01-11T08:38:42;11.30;;;4.97;;
7295;SDS011;40758;54.038;11.684;2024-01-11T08:41:09;7.20;;;2.45;;
7295;SDS011;40758;54.038;11.684;2024-01-11T08:43:36;9.93;;;5.63;;
7295;SDS011;40758;54.038;11.684;2024-01-11T08:46:03;7.97;;;3.97;;
7295;SDS011;40758;54.038;11.684;2024-01-11T08:48:30;8.80;;;5.82;;
7295;SDS011;40758;54.038;11.684;2024-01-11T08:50:57;9.50;;;4.95;;
7295;SDS011;40758;54.038;11.684;2024-01-11T08:53:23;7.47;;;2.40;;
7295;SDS011;40758;54.038;11.684;2024-01-11T08:55:50;9.30;;;4.78;;
7295;SDS011;40758;54.038;11.684;2024-01-11T08:58:17;6.82;;;6.03;;
7295;SDS011;40758;54.038;11.684;2024-01-11T09:00:44;5.63;;;3.35;;
7295;SDS011;40758;54.038;11.684;2024-01-11T09:03:10;7.55;;;4.40;;
7295;SDS011;40758;54.038;11.684;2024-01-11T09:05:39;7.97;;;5.18;;
7295;SDS011;40758;54.038;11.684;2024-01-11T09:08:06;8.20;;;2.40;;
7295;SDS011;40758;54.038;11.684;2024-01-11T09:10:39;10.00;;;4.88;;
7295;SDS011;40758;54.038;11.684;2024-01-11T09:13:08;9.00;;;3.80;;
7295;SDS011;40758;54.038;11.684;2024-01-11T09:15:37;9.05;;;5.97;;
7295;SDS011;40758;54.038;11.684;2024-01-11T09:18:04;8.00;;;4.70;;
7295;SDS011;40758;54.038;11.684;2024-01-11T09:20:31;9.95;;;2.70;;
7295;SDS011;40758;54.038;11.684;2024-01-11T09:22:58;8.98;;;4.78;;
7295;SDS011;40758;54.038;11.684;2024-01-11T09:25:25;6.75;;;4.93;;
7295;SDS011;40758;54.038;11.684;2024-01-11T09:27:51;6.72;;;2.47;;
7295;SDS011;40758;54.038;11.684;2024-01-11T09:30:18;11.30;;;2.60;;
7295;SDS011;40758;54.038;11.684;2024-01-11T09:32:45;6.85;;;5.43;;
7295;SDS011;40758;54.038;11.684;2024-01-11T09:35:12;8.75;;;2.58;;
7295;SDS011;40758;54.038;11.684;2024-01-11T09:37:42;7.35;;;5.00;;
7295;SDS011;40758;54.038;11.684;2024-01-11T09:40:13;10.02;;;4.78;;
7295;SDS011;40758;54.038;11.684;2024-01-11T09:42:40;10.50;;;3.33;;
7295;SDS011;40758;54.038;11.684;2024-01-11T09:45:17;10.35;;;3.13;;
7295;SDS011;40758;54.038;11.684;2024-01-11T09:47:45;9.43;;;5.70;;
7295;SDS011;40758;54.038;11.684;2024-01-11T09:50:16;10.20;;;5.78;;
7295;SDS011;40758;54.038;11.684;2024-01-11T09:52:48;9.73;;;2.88;;
7295;SDS011;40758;54.038;11.684;2024-01-11T09:55:16;10.30;;;2.63;;
7295;SDS011;40758;54.038;11.684;2024-01-11T09:57:44;10.82;;;5.28;;
7295;SDS011;40758;54.038;11.684;2024-01-11T10:00:19;13.35;;;4.90;;
7295;SDS011;40758;54.038;11.684;2024-01-11T10:02:49;10.75;;;5.05;;
7295;SDS011;40758;54.038;11.684;2024-01-11T10:05:17;10.43;;;5.88;;
7295;SDS011;40758;54.038;11.684;2024-01-11T10:07:45;10.93;;;4.68;;
7295;SDS011;40758;54.038;11.684;2024-01-11T10:10:14;10.25;;;5.10;;
7295;SDS011;40758;54.038;11.684;2024-01-11T10:12:44;12.27;;;5.38;;
7295;SDS011;40758;54.038;11.684;2024-01-11T10:15:11;10.32;;;5.63;;
7295;SDS011;40758;54.038;11.684;2024-01-11T10:20:08;10.73;;;5.43;;
7295;SDS011;40758;54.038;11.684;2024-01-11T10:22:37;13.70;;;6.72;;
7295;SDS011;40758;54.038;11.684;2024-01-11T10:25:10;11.90;;;5.93;;
7295;SDS011;40758;54.038;11.684;2024-01-11T10:27:42;11.50;;;6.40;;
7295;SDS011;40758;54.038;11.684;2024-01-11T10:30:13;12.27;;;6.22;;
7295;SDS011;40758;54.038;11.684;2024-01-11T10:32:48;10.90;;;5.68;;
7295;SDS011;40758;54.038;11.684;2024-01-11T10:35:16;9.38;;;5.28;;
7295;SDS011;40758;54.038;11.684;2024-01-11T10:37:45;11.63;;;5.55;;
7295;SDS011;40758;54.038;11.684;2024-01-11T10:40:16;10.43;;;5.30;;
7295;SDS011;40758;54.038;11.684;2024-01-11T10:42:44;12.77;;;5.60;;
7295;SDS011;40758;54.038;11.684;2024-01-11T10:45:15;9.43;;;4.20;;
7295;SDS011;40758;54.038;11.684;2024-01-11T10:48:06;11.13;;;4.82;;
7295;SDS011;40758;54.038;11.684;2024-01-11T10:50:36;7.05;;;4.40;;
7295;SDS011;40758;54.038;11.684;2024-01-11T10:55:37;7.38;;;4.18;;
7295;SDS011;40758;54.038;11.684;2024-01-11T10:58:05;6.75;;;4.00;;
7295;SDS011;40758;54.038;11.684;2024-01-11T11:03:01;8.23;;;4.65;;
7295;SDS011;40758;54.038;11.684;2024-01-11T11:05:29;8.13;;;2.05;;
7295;SDS011;40758;54.038;11.684;2024-01-11T11:10:28;6.75;;;4.63;;
7295;SDS011;40758;54.038;11.684;2024-01-11T11:15:28;5.07;;;2.15;;
7295;SDS011;40758;54.038;11.684;2024-01-11T11:17:56;5.30;;;4.70;;
7295;SDS011;40758;54.038;11.684;2024-01-11T11:20:23;4.68;;;2.03;;
7295;SDS011;40758;54.038;11.684;2024-01-11T11:23:09;6.38;;;5.60;;
7295;SDS011;40758;54.038;11.684;2024-01-11T11:25:37;4.95;;;4.25;;
7295;SDS011;40758;54.038;11.684;2024-01-11T11:28:06;7.03;;;3.83;;
7295;SDS011;40758;54.038;11.684;2024-01-11T11:30:33;8.07;;;4.53;;
7295;SDS011;40758;54.038;11.684;2024-01-11T11:33:16;6.53;;;4.60;;
7295;SDS011;40758;54.038;11.684;2024-01-11T11:35:52;5.70;;;5.03;;
7295;SDS011;40758;54.038;11.684;2024-01-11T11:38:22;11.65;;;5.57;;
7295;SDS011;40758;54.038;11.684;2024-01-11T11:40:53;10.25;;;5.30;;
7295;SDS011;40758;54.038;11.684;2024-01-11T11:43:22;6.45;;;5.05;;
7295;SDS011;40758;54.038;11.684;2024-01-11T11:45:50;6.78;;;2.75;;
7295;SDS011;40758;54.038;11.684;2024-01-11T11:51:17;7.50;;;5.07;;
7295;SDS011;40758;54.038;11.684;2024-01-11T11:53:47;5.93;;;1.75;;
7295;SDS011;40758;54.038;11.684;2024-01-11T11:56:18;7.10;;;4.45;;
7295;SDS011;40758;54.038;11.684;2024-01-11T11:58:48;7.28;;;6.55;;
7295;SDS011;40758;54.038;11.684;2024-01-11T12:01:16;5.45;;;2.15;;
7295;SDS011;40758;54.038;11.684;2024-01-11T12:03:44;8.40;;;6.70;;
7295;SDS011;40758;54.038;11.684;2024-01-11T12:06:19;6.90;;;5.18;;
7295;SDS011;40758;54.038;11.684;2024-01-11T12:08:50;7.78;;;4.13;;
7295;SDS011;40758;54.038;11.684;2024-01-11T12:11:22;7.75;;;6.65;;
7295;SDS011;40758;54.038;11.684;2024-01-11T12:13:49;4.70;;;2.47;;
7295;SDS011;40758;54.038;11.684;2024-01-11T12:16:16;9.25;;;5.70;;
7295;SDS011;40758;54.038;11.684;2024-01-11T12:18:43;5.55;;;2.47;;
7295;SDS011;40758;54.038;11.684;2024-01-11T12:21:10;8.57;;;4.82;;
7295;SDS011;40758;54.038;11.684;2024-01-11T12:23:38;8.07;;;5.38;;
7295;SDS011;40758;54.038;11.684;2024-01-11T12:26:06;6.93;;;4.43;;
7295;SDS011;40758;54.038;11.684;2024-01-11T12:28:41;5.72;;;2.28;;
7295;SDS011;40758;54.038;11.684;2024-01-11T12:31:09;8.18;;;5.97;;
7295;SDS011;40758;54.038;11.684;2024-01-11T12:33:36;7.05;;;4.20;;
7295;SDS011;40758;54.038;11.684;2024-01-11T12:36:06;8.90;;;5.93;;
7295;SDS011;40758;54.038;11.684;2024-01-11T12:38:34;9.07;;;4.60;;
7295;SDS011;40758;54.038;11.684;2024-01-11T12:41:06;5.90;;;5.30;;
7295;SDS011;40758;54.038;11.684;2024-01-11T12:43:33;6.18;;;2.10;;
7295;SDS011;40758;54.038;11.684;2024-01-11T12:46:01;11.20;;;6.28;;
7295;SDS011;40758;54.038;11.684;2024-01-11T12:48:29;15.90;;;9.05;;
7295;SDS011;40758;54.038;11.684;2024-01-11T12:50:57;8.10;;;4.53;;
7295;SDS011;40758;54.038;11.684;2024-01-11T12:53:40;7.05;;;2.42;;
7295;SDS011;40758;54.038;11.684;2024-01-11T12:56:07;8.27;;;2.85;;
7295;SDS011;40758;54.038;11.684;2024-01-11T12:58:38;9.50;;;6.63;;
7295;SDS011;40758;54.038;11.684;2024-01-11T13:01:06;7.28;;;6.03;;
7295;SDS011;40758;54.038;11.684;2024-01-11T13:03:43;9.15;;;6.45;;
7295;SDS011;40758;54.038;11.684;2024-01-11T13:06:12;8.90;;;2.78;;
7295;SDS011;40758;54.038;11.684;2024-01-11T13:08:41;8.40;;;5.95;;
7295;SDS011;40758;54.038;11.684;2024-01-11T13:11:09;7.45;;;4.28;;
7295;SDS011;40758;54.038;11.684;2024-01-11T13:13:36;6.85;;;4.28;;
7295;SDS011;40758;54.038;11.684;2024-01-11T13:16:03;8.23;;;2.65;;
7295;SDS011;40758;54.038;11.684;2024-01-11T13:18:34;7.45;;;3.20;;
7295;SDS011;40758;54.038;11.684;2024-01-11T13:21:01;9.50;;;3.17;;
7295;SDS011;40758;54.038;11.684;2024-01-11T13:23:29;6.22;;;2.88;;
7295;SDS011;40758;54.038;11.684;2024-01-11T13:25:57;9.40;;;5.68;;
7295;SDS011;40758;54.038;11.684;2024-01-11T13:28:24;7.50;;;5.82;;
7295;SDS011;40758;54.038;11.684;2024-01-11T13:30:53;8.07;;;7.03;;
7295;SDS011;40758;54.038;11.684;2024-01-11T13:33:20;8.18;;;3.15;;
7295;SDS011;40758;54.038;11.684;2024-01-11T13:35:49;6.93;;;5.28;;
7295;SDS011;40758;54.038;11.684;2024-01-11T13:38:16;7.80;;;4.95;;
7295;SDS011;40758;54.038;11.684;2024-01-11T13:40:46;7.30;;;5.57;;
7295;SDS011;40758;54.038;11.684;2024-01-11T13:43:12;9.52;;;5.07;;
7295;SDS011;40758;54.038;11.684;2024-01-11T13:45:39;8.88;;;5.88;;
7295;SDS011;40758;54.038;11.684;2024-01-11T13:48:07;9.48;;;5.22;;
7295;SDS011;40758;54.038;11.684;2024-01-11T13:50:34;10.88;;;6.00;;
7295;SDS011;40758;54.038;11.684;2024-01-11T13:53:02;7.18;;;2.67;;
7295;SDS011;40758;54.038;11.684;2024-01-11T13:55:30;10.65;;;3.70;;
7295;SDS011;40758;54.038;11.684;2024-01-11T13:58:05;9.38;;;5.90;;
7295;SDS011;40758;54.038;11.684;2024-01-11T14:00:32;7.28;;;5.40;;
7295;SDS011;40758;54.038;11.684;2024-01-11T14:02:59;10.07;;;5.30;;
7295;SDS011;40758;54.038;11.684;2024-01-11T14:05:26;9.40;;;6.13;;
7295;SDS011;40758;54.038;11.684;2024-01-11T14:07:53;9.93;;;3.60;;
7295;SDS011;40758;54.038;11.684;2024-01-11T14:10:25;9.45;;;4.75;;
7295;SDS011;40758;54.038;11.684;2024-01-11T14:12:53;7.63;;;4.00;;
7295;SDS011;40758;54.038;11.684;2024-01-11T14:15:20;11.38;;;6.70;;
7295;SDS011;40758;54.038;11.684;2024-01-11T14:17:47;10.93;;;7.47;;
7295;SDS011;40758;54.038;11.684;2024-01-11T14:20:15;11.60;;;5.85;;
7295;SDS011;40758;54.038;11.684;2024-01-11T14:22:43;10.65;;;3.10;;
7295;SDS011;40758;54.038;11.684;2024-01-11T14:25:18;11.77;;;3.55;;
7295;SDS011;40758;54.038;11.684;2024-01-11T14:27:47;11.45;;;4.05;;
7295;SDS011;40758;54.038;11.684;2024-01-11T14:30:16;9.85;;;7.53;;
7295;SDS011;40758;54.038;11.684;2024-01-11T14:32:43;10.88;;;6.50;;
7295;SDS011;40758;54.038;11.684;2024-01-11T14:35:11;10.20;;;7.00;;
7295;SDS011;40758;54.038;11.684;2024-01-11T14:37:39;10.52;;;7.93;;
7295;SDS011;40758;54.038;11.684;2024-01-11T14:40:07;13.82;;;6.32;;
7295;SDS011;40758;54.038;11.684;2024-01-11T14:42:38;12.10;;;6.88;;
7295;SDS011;40758;54.038;11.684;2024-01-11T14:45:05;11.25;;;5.03;;
7295;SDS011;40758;54.038;11.684;2024-01-11T14:47:32;11.85;;;4.05;;
7295;SDS011;40758;54.038;11.684;2024-01-11T14:50:01;11.55;;;6.22;;
7295;SDS011;40758;54.038;11.684;2024-01-11T14:52:30;10.95;;;3.72;;
7295;SDS011;40758;54.038;11.684;2024-01-11T14:54:57;10.35;;;4.68;;
7295;SDS011;40758;54.038;11.684;2024-01-11T14:57:24;11.68;;;3.92;;
7295;SDS011;40758;54.038;11.684;2024-01-11T14:59:50;10.05;;;3.75;;
7295;SDS011;40758;54.038;11.684;2024-01-11T15:02:18;10.57;;;4.47;;